createdAt,value
2023-02-15T00:02:02.321Z,14.80
2023-02-15T00:04:47.980Z,15.55
2023-02-15T00:07:20.020Z,14.45
2023-02-15T00:09:48.550Z,14.98
2023-02-15T00:12:16.665Z,14.88
2023-02-15T00:14:43.871Z,15.30
2023-02-15T00:17:10.920Z,16.15
2023-02-15T00:19:38.033Z,15.98
2023-02-15T00:22:05.774Z,15.80
2023-02-15T00:24:33.069Z,13.93
2023-02-15T00:27:00.264Z,15.00
2023-02-15T00:29:27.359Z,16.13
2023-02-15T00:31:54.560Z,14.15
2023-02-15T00:34:24.639Z,15.35
2023-02-15T00:36:52.022Z,14.65
2023-02-15T00:39:19.647Z,14.63
2023-02-15T00:41:47.730Z,13.05
2023-02-15T00:44:16.359Z,15.10
2023-02-15T00:46:43.833Z,14.95
2023-02-15T00:49:11.489Z,14.27
2023-02-15T00:51:39.067Z,15.65
2023-02-15T00:54:06.544Z,14.75
2023-02-15T00:56:33.872Z,14.70
2023-02-15T00:59:01.006Z,15.82
2023-02-15T01:01:28.026Z,16.67
2023-02-15T01:03:55.190Z,16.52
2023-02-15T01:06:22.306Z,15.90
2023-02-15T01:08:49.693Z,16.20
2023-02-15T01:11:24.891Z,16.20
2023-02-15T01:13:55.238Z,15.90
2023-02-15T01:16:23.463Z,16.00
2023-02-15T01:18:50.662Z,16.08
2023-02-15T01:21:21.876Z,15.27
2023-02-15T01:23:49.284Z,14.35
2023-02-15T01:26:16.891Z,14.43
2023-02-15T01:28:44.087Z,14.45
2023-02-15T01:31:14.039Z,15.68
2023-02-15T01:33:41.207Z,14.63
2023-02-15T01:36:08.303Z,16.10
2023-02-15T01:38:36.859Z,14.15
2023-02-15T01:41:23.364Z,15.52
2023-02-15T01:43:56.639Z,15.93
2023-02-15T01:46:29.148Z,15.15
2023-02-15T01:49:02.707Z,15.60
2023-02-15T01:51:34.065Z,14.82
2023-02-15T01:54:08.823Z,14.05
2023-02-15T01:56:38.423Z,15.00
2023-02-15T01:59:10.423Z,15.10
2023-02-15T02:01:38.714Z,15.60
2023-02-15T02:04:05.762Z,15.07
2023-02-15T02:06:36.052Z,14.68
2023-02-15T02:09:03.631Z,16.02
2023-02-15T02:11:31.008Z,15.02
2023-02-15T02:13:58.114Z,14.98
2023-02-15T02:16:26.315Z,14.90
2023-02-15T02:19:14.616Z,13.98
2023-02-15T02:21:50.475Z,14.70
2023-02-15T02:24:40.408Z,15.90
2023-02-15T02:27:25.861Z,14.18
2023-02-15T02:30:08.002Z,15.38
2023-02-15T02:33:02.393Z,14.52
2023-02-15T02:36:03.967Z,13.55
2023-02-15T02:38:56.362Z,14.18
2023-02-15T02:41:37.791Z,13.73
2023-02-15T02:44:17.097Z,13.80
2023-02-15T02:47:00.508Z,12.95
2023-02-15T02:49:43.085Z,14.00
2023-02-15T02:52:37.067Z,13.50
2023-02-15T02:55:16.751Z,14.77
2023-02-15T02:58:30.364Z,14.15
2023-02-15T03:01:10.915Z,13.85
2023-02-15T03:03:51.592Z,14.82
2023-02-15T03:06:22.427Z,15.32
2023-02-15T03:08:55.816Z,14.80
2023-02-15T03:11:22.949Z,13.43
2023-02-15T03:13:51.077Z,14.50
2023-02-15T03:16:26.959Z,14.30
2023-02-15T03:19:03.757Z,14.00
2023-02-15T03:22:05.059Z,14.93
2023-02-15T03:24:54.966Z,13.52
2023-02-15T03:27:27.843Z,12.18
2023-02-15T03:30:00.843Z,15.05
2023-02-15T03:32:31.775Z,12.80
2023-02-15T03:34:59.571Z,13.85
2023-02-15T03:37:34.349Z,14.45
2023-02-15T03:40:26.948Z,13.25
2023-02-15T03:43:13.581Z,14.63
2023-02-15T03:45:55.770Z,14.05
2023-02-15T03:48:37.777Z,13.18
2023-02-15T03:51:30.820Z,13.27
2023-02-15T03:54:00.226Z,13.70
2023-02-15T03:56:27.476Z,14.50
2023-02-15T03:59:12.953Z,14.52
2023-02-15T04:02:04.590Z,15.30
2023-02-15T04:04:40.438Z,13.93
2023-02-15T04:07:10.138Z,13.57
2023-02-15T04:09:56.254Z,13.63
2023-02-15T04:12:23.496Z,15.05
2023-02-15T04:15:09.366Z,13.82
2023-02-15T04:17:38.746Z,13.07
2023-02-15T04:20:25.219Z,13.85
2023-02-15T04:23:11.049Z,12.88
2023-02-15T04:25:38.297Z,12.32
2023-02-15T04:28:05.485Z,14.48
2023-02-15T04:30:32.510Z,13.00
2023-02-15T04:32:59.736Z,13.70
2023-02-15T04:35:26.913Z,12.55
2023-02-15T04:37:53.982Z,14.25
2023-02-15T04:40:21.023Z,13.70
2023-02-15T04:42:50.861Z,12.80
2023-02-15T04:45:18.974Z,13.38
2023-02-15T04:47:46.113Z,13.25
2023-02-15T04:50:13.592Z,13.13
2023-02-15T04:52:40.685Z,13.80
2023-02-15T04:55:08.150Z,14.38
2023-02-15T04:57:35.233Z,12.73
2023-02-15T05:00:02.356Z,12.35
2023-02-15T05:02:29.344Z,13.20
2023-02-15T05:04:56.415Z,13.23
2023-02-15T05:07:23.505Z,14.10
2023-02-15T05:09:50.526Z,15.35
2023-02-15T05:12:17.589Z,14.05
2023-02-15T05:14:44.579Z,14.65
2023-02-15T05:17:11.664Z,12.38
2023-02-15T05:19:38.692Z,14.80
2023-02-15T05:22:05.667Z,14.30
2023-02-15T05:24:51.426Z,14.80
2023-02-15T05:27:37.068Z,15.90
2023-02-15T05:30:04.476Z,13.93
2023-02-15T05:32:31.706Z,14.63
2023-02-15T05:34:58.775Z,13.70
2023-02-15T05:37:25.819Z,14.50
2023-02-15T05:39:52.855Z,13.10
2023-02-15T05:42:19.852Z,14.02
2023-02-15T05:44:46.912Z,13.68
2023-02-15T05:47:13.952Z,15.10
2023-02-15T05:49:40.954Z,14.32
2023-02-15T05:52:08.049Z,14.27
2023-02-15T05:54:35.201Z,13.55
2023-02-15T05:57:02.200Z,14.95
2023-02-15T05:59:29.245Z,14.65
2023-02-15T06:01:56.280Z,15.75
2023-02-15T06:04:23.345Z,13.93
2023-02-15T06:06:50.340Z,15.00
2023-02-15T06:09:19.408Z,14.55
2023-02-15T06:11:46.760Z,14.55
2023-02-15T06:14:13.860Z,14.23
2023-02-15T06:16:40.897Z,13.93
2023-02-15T06:19:08.119Z,15.70
2023-02-15T06:21:35.245Z,15.98
2023-02-15T06:24:02.300Z,13.52
2023-02-15T06:26:29.529Z,13.30
2023-02-15T06:28:56.660Z,13.20
2023-02-15T06:31:23.767Z,12.63
2023-02-15T06:33:50.825Z,13.90
2023-02-15T06:36:17.912Z,13.43
2023-02-15T06:38:44.940Z,13.63
2023-02-15T06:41:12.010Z,12.95
2023-02-15T06:43:40.974Z,13.30
2023-02-15T06:46:08.144Z,12.10
2023-02-15T06:48:35.334Z,12.90
2023-02-15T06:51:02.408Z,13.40
2023-02-15T06:53:30.307Z,12.95
2023-02-15T06:56:07.682Z,11.07
2023-02-15T06:58:41.805Z,10.98
2023-02-15T07:01:10.576Z,11.93
2023-02-15T07:03:37.681Z,12.05
2023-02-15T07:06:09.544Z,12.88
2023-02-15T07:08:37.503Z,10.90
2023-02-15T07:11:23.589Z,10.95
2023-02-15T07:13:50.730Z,12.15
2023-02-15T07:16:17.816Z,11.13
2023-02-15T07:18:44.833Z,12.18
2023-02-15T07:21:12.011Z,11.63
2023-02-15T07:23:40.339Z,12.32
2023-02-15T07:26:08.986Z,11.10
2023-02-15T07:28:37.371Z,11.02
2023-02-15T07:31:06.010Z,12.65
2023-02-15T07:33:34.008Z,12.80
2023-02-15T07:36:03.612Z,11.98
2023-02-15T07:38:36.505Z,12.68
2023-02-15T07:41:06.650Z,13.13
2023-02-15T07:43:39.274Z,13.38
2023-02-15T07:46:10.259Z,13.80
2023-02-15T07:48:39.314Z,12.55
2023-02-15T07:51:08.531Z,12.82
2023-02-15T07:53:37.083Z,14.85
2023-02-15T07:56:07.361Z,14.77
2023-02-15T07:58:53.141Z,13.75
2023-02-15T08:01:22.010Z,14.55
2023-02-15T08:03:49.738Z,13.98
2023-02-15T08:06:17.419Z,13.98
2023-02-15T08:08:44.929Z,15.45
2023-02-15T08:11:26.958Z,13.30
2023-02-15T08:14:24.433Z,14.35
2023-02-15T08:17:00.287Z,15.10
2023-02-15T08:19:28.752Z,15.07
2023-02-15T08:22:01.044Z,15.27
2023-02-15T08:24:31.134Z,14.77
2023-02-15T08:26:58.341Z,13.93
2023-02-15T08:29:30.084Z,14.60
2023-02-15T08:32:03.084Z,15.45
2023-02-15T08:34:33.083Z,14.00
2023-02-15T08:37:00.417Z,14.63
2023-02-15T08:39:27.694Z,12.95
2023-02-15T08:41:54.802Z,14.60
2023-02-15T08:44:22.185Z,14.68
2023-02-15T08:46:51.000Z,14.73
2023-02-15T08:49:22.709Z,15.00
2023-02-15T08:51:52.384Z,15.68
2023-02-15T08:54:22.940Z,15.35
2023-02-15T08:56:50.006Z,15.93
2023-02-15T08:59:19.770Z,16.95
2023-02-15T09:01:47.945Z,17.50
2023-02-15T09:04:16.873Z,15.90
2023-02-15T09:06:48.079Z,15.82
2023-02-15T09:09:17.269Z,16.48
2023-02-15T09:11:46.323Z,16.00
2023-02-15T09:14:19.004Z,16.40
2023-02-15T09:16:50.075Z,16.23
2023-02-15T09:19:19.358Z,16.90
2023-02-15T09:21:47.234Z,17.40
2023-02-15T09:24:16.497Z,17.92
2023-02-15T09:26:46.639Z,20.10
2023-02-15T09:29:14.684Z,16.42
2023-02-15T09:31:47.421Z,15.50
2023-02-15T09:34:17.822Z,16.33
2023-02-15T09:36:44.941Z,17.35
2023-02-15T09:39:21.095Z,15.88
2023-02-15T09:41:56.869Z,17.00
2023-02-15T09:44:42.676Z,15.00
2023-02-15T09:47:43.197Z,15.35
2023-02-15T09:50:22.224Z,15.30
2023-02-15T09:53:07.953Z,16.83
2023-02-15T09:55:52.580Z,15.63
2023-02-15T09:58:56.614Z,17.35
2023-02-15T10:02:01.229Z,20.83
2023-02-15T10:04:40.427Z,16.80
2023-02-15T10:07:26.152Z,18.75
2023-02-15T10:10:00.033Z,17.63
2023-02-15T10:12:54.847Z,16.42
2023-02-15T10:15:21.868Z,14.40
2023-02-15T10:18:06.312Z,15.73
2023-02-15T10:20:40.263Z,16.65
2023-02-15T10:23:29.998Z,16.05
2023-02-15T10:26:18.760Z,15.63
2023-02-15T10:28:58.645Z,17.10
2023-02-15T10:31:30.005Z,15.07
2023-02-15T10:34:21.851Z,16.98
2023-02-15T10:37:27.352Z,16.27
2023-02-15T10:40:10.119Z,16.70
2023-02-15T10:43:15.688Z,17.02
2023-02-15T10:46:08.302Z,16.58
2023-02-15T10:49:02.639Z,17.63
2023-02-15T10:51:38.360Z,15.57
2023-02-15T10:54:47.096Z,17.45
2023-02-15T10:57:19.889Z,16.73
2023-02-15T11:00:03.343Z,16.88
2023-02-15T11:03:27.127Z,15.82
2023-02-15T11:06:26.046Z,16.15
2023-02-15T11:09:02.969Z,16.00
2023-02-15T11:11:41.712Z,16.38
2023-02-15T11:14:39.257Z,15.95
2023-02-15T11:17:12.723Z,16.48
2023-02-15T11:20:04.059Z,15.55
2023-02-15T11:22:34.652Z,16.10
2023-02-15T11:25:15.586Z,16.80
2023-02-15T11:27:47.528Z,16.02
2023-02-15T11:30:20.413Z,16.58
2023-02-15T11:32:52.398Z,15.15
2023-02-15T11:35:41.833Z,15.80
2023-02-15T11:38:30.003Z,16.85
2023-02-15T11:41:14.862Z,15.80
2023-02-15T11:43:53.043Z,16.40
2023-02-15T11:46:22.414Z,15.82
2023-02-15T11:48:49.791Z,17.02
2023-02-15T11:51:23.644Z,17.88
2023-02-15T11:53:52.580Z,17.23
2023-02-15T11:56:27.521Z,16.83
2023-02-15T11:59:23.448Z,17.83
2023-02-15T12:01:50.491Z,17.60
2023-02-15T12:04:20.664Z,19.50
2023-02-15T12:07:10.027Z,17.52
2023-02-15T12:10:30.328Z,17.35
2023-02-15T12:13:21.002Z,15.65
2023-02-15T12:15:57.045Z,16.45
2023-02-15T12:18:57.909Z,17.00
2023-02-15T12:21:41.833Z,15.35
2023-02-15T12:24:20.237Z,18.05
2023-02-15T12:27:17.262Z,15.23
2023-02-15T12:29:58.204Z,15.55
2023-02-15T12:32:27.204Z,16.05
2023-02-15T12:35:01.552Z,16.45
2023-02-15T12:37:33.161Z,16.25
2023-02-15T12:40:02.325Z,17.83
2023-02-15T12:42:45.754Z,16.38
2023-02-15T12:45:21.634Z,15.23
2023-02-15T12:48:15.157Z,16.52
2023-02-15T12:50:44.224Z,15.80
2023-02-15T12:53:20.544Z,17.70
2023-02-15T12:55:59.122Z,15.30
2023-02-15T12:58:29.258Z,16.73
2023-02-15T13:01:17.893Z,17.42
2023-02-15T13:03:53.875Z,16.77
2023-02-15T13:06:22.760Z,15.50
2023-02-15T13:08:55.639Z,16.60
2023-02-15T13:11:35.450Z,17.52
2023-02-15T13:14:15.310Z,16.83
2023-02-15T13:16:44.142Z,16.83
2023-02-15T13:19:18.872Z,15.80
2023-02-15T13:21:48.953Z,15.77
2023-02-15T13:24:40.230Z,18.00
2023-02-15T13:27:15.770Z,16.83
2023-02-15T13:29:47.877Z,16.33
2023-02-15T13:32:26.920Z,16.77
2023-02-15T13:34:58.158Z,16.80
2023-02-15T13:37:50.962Z,15.05
2023-02-15T13:40:30.144Z,15.15
2023-02-15T13:43:26.031Z,16.20
2023-02-15T13:46:14.536Z,15.32
2023-02-15T13:49:17.826Z,16.48
2023-02-15T13:52:07.087Z,16.92
2023-02-15T13:54:58.939Z,17.95
2023-02-15T13:57:55.132Z,16.90
2023-02-15T14:00:31.258Z,15.75
2023-02-15T14:03:28.716Z,16.92
2023-02-15T14:06:24.658Z,15.85
2023-02-15T14:09:01.771Z,14.67
2023-02-15T14:11:49.786Z,14.93
2023-02-15T14:14:19.611Z,15.88
2023-02-15T14:17:06.204Z,15.05
2023-02-15T14:19:51.986Z,16.90
2023-02-15T14:22:40.032Z,14.95
2023-02-15T14:25:29.887Z,16.38
2023-02-15T14:28:16.076Z,15.57
2023-02-15T14:30:49.469Z,15.05
2023-02-15T14:33:43.980Z,16.10
2023-02-15T14:36:20.584Z,15.55
2023-02-15T14:39:41.380Z,16.63
2023-02-15T14:42:37.893Z,16.52
2023-02-15T14:45:16.877Z,17.17
2023-02-15T14:47:53.230Z,17.27
2023-02-15T14:50:33.224Z,17.45
2023-02-15T14:53:22.448Z,15.70
2023-02-15T14:56:05.950Z,16.30
2023-02-15T14:58:33.192Z,18.13
2023-02-15T15:01:12.104Z,16.83
2023-02-15T15:03:54.264Z,15.43
2023-02-15T15:06:58.556Z,14.93
2023-02-15T15:09:30.862Z,15.77
2023-02-15T15:12:23.051Z,21.80
2023-02-15T15:14:51.820Z,20.70
2023-02-15T15:17:56.332Z,16.27
2023-02-15T15:20:52.234Z,16.60
2023-02-15T15:23:19.512Z,16.10
2023-02-15T15:25:57.607Z,15.52
2023-02-15T15:28:36.951Z,17.30
2023-02-15T15:31:27.032Z,16.17
2023-02-15T15:34:13.184Z,16.65
2023-02-15T15:36:43.037Z,15.32
2023-02-15T15:39:53.333Z,15.27
2023-02-15T15:42:29.780Z,16.08
2023-02-15T15:45:31.240Z,15.55
2023-02-15T15:48:22.992Z,15.15
2023-02-15T15:50:55.780Z,15.30
2023-02-15T15:53:26.837Z,15.13
2023-02-15T15:56:02.791Z,15.32
2023-02-15T15:58:33.721Z,17.63
2023-02-15T16:01:04.790Z,16.85
2023-02-15T16:03:31.849Z,16.27
2023-02-15T16:06:02.088Z,16.75
2023-02-15T16:08:34.241Z,16.02
2023-02-15T16:11:15.115Z,17.23
2023-02-15T16:13:46.429Z,17.25
2023-02-15T16:16:21.026Z,16.23
2023-02-15T16:18:49.103Z,17.75
2023-02-15T16:21:28.031Z,15.77
2023-02-15T16:24:25.418Z,17.73
2023-02-15T16:27:11.765Z,17.80
2023-02-15T16:29:39.217Z,17.40
2023-02-15T16:32:20.594Z,17.88
2023-02-15T16:34:56.710Z,15.40
2023-02-15T16:37:28.605Z,17.55
2023-02-15T16:39:56.693Z,15.77
2023-02-15T16:42:26.196Z,17.15
2023-02-15T16:45:09.514Z,16.75
2023-02-15T16:47:42.718Z,16.42
2023-02-15T16:50:40.039Z,16.55
2023-02-15T16:53:15.805Z,16.48
2023-02-15T16:55:58.284Z,15.77
2023-02-15T16:58:46.694Z,18.08
2023-02-15T17:01:17.364Z,17.95
2023-02-15T17:03:45.180Z,17.40
2023-02-15T17:06:28.059Z,17.27
2023-02-15T17:09:14.586Z,15.95
2023-02-15T17:11:44.753Z,17.67
2023-02-15T17:14:15.888Z,17.50
2023-02-15T17:16:50.232Z,16.38
2023-02-15T17:19:51.146Z,17.20
2023-02-15T17:22:22.634Z,17.95
2023-02-15T17:24:59.128Z,17.38
2023-02-15T17:27:28.752Z,17.13
2023-02-15T17:30:03.697Z,15.50
2023-02-15T17:32:36.089Z,17.48
2023-02-15T17:35:10.047Z,17.73
2023-02-15T17:37:37.990Z,15.35
2023-02-15T17:40:28.522Z,17.80
2023-02-15T17:42:56.461Z,17.27
2023-02-15T17:45:29.536Z,18.42
2023-02-15T17:48:00.377Z,18.90
2023-02-15T17:50:28.917Z,17.60
2023-02-15T17:53:00.155Z,19.42
2023-02-15T17:55:39.688Z,17.10
2023-02-15T17:58:13.455Z,17.70
2023-02-15T18:01:09.180Z,19.52
2023-02-15T18:04:04.316Z,17.80
2023-02-15T18:06:52.152Z,16.60
2023-02-15T18:09:40.151Z,16.50
2023-02-15T18:12:23.010Z,18.20
2023-02-15T18:14:52.962Z,18.20
2023-02-15T18:17:38.150Z,18.55
2023-02-15T18:20:18.750Z,18.35
2023-02-15T18:22:50.167Z,18.80
2023-02-15T18:25:27.351Z,18.25
2023-02-15T18:27:55.632Z,18.77
2023-02-15T18:30:27.370Z,18.60
2023-02-15T18:33:00.864Z,19.10
2023-02-15T18:35:33.903Z,18.02
2023-02-15T18:38:02.990Z,18.75
2023-02-15T18:40:33.180Z,18.20
2023-02-15T18:43:01.122Z,17.83
2023-02-15T18:45:39.580Z,20.42
2023-02-15T18:48:28.690Z,20.42
2023-02-15T18:50:58.024Z,19.00
2023-02-15T18:53:26.485Z,25.80
2023-02-15T18:55:54.715Z,19.42
2023-02-15T18:58:28.748Z,20.27
2023-02-15T19:00:59.642Z,18.00
2023-02-15T19:03:28.143Z,17.25
2023-02-15T19:05:56.517Z,23.25
2023-02-15T19:08:27.743Z,18.73
2023-02-15T19:10:56.798Z,18.20
2023-02-15T19:13:25.261Z,18.50
2023-02-15T19:15:54.610Z,20.02
2023-02-15T19:18:22.768Z,19.67
2023-02-15T19:20:54.206Z,19.65
2023-02-15T19:23:25.436Z,19.10
2023-02-15T19:25:57.413Z,18.00
2023-02-15T19:28:35.355Z,19.45
2023-02-15T19:31:05.564Z,18.83
2023-02-15T19:33:33.622Z,19.75
2023-02-15T19:36:01.755Z,18.67
2023-02-15T19:38:37.331Z,18.95
2023-02-15T19:41:16.566Z,19.27
2023-02-15T19:43:57.287Z,20.27
2023-02-15T19:46:28.456Z,19.35
2023-02-15T19:48:57.173Z,20.40
2023-02-15T19:51:26.263Z,19.42
2023-02-15T19:53:55.703Z,20.40
2023-02-15T19:56:25.823Z,20.45
2023-02-15T19:58:55.895Z,19.42
2023-02-15T20:01:26.234Z,20.70
2023-02-15T20:03:56.963Z,20.00
2023-02-15T20:06:25.232Z,18.88
2023-02-15T20:08:54.206Z,20.88
2023-02-15T20:11:22.685Z,20.80
2023-02-15T20:13:51.747Z,21.05
2023-02-15T20:16:20.966Z,20.80
2023-02-15T20:18:49.364Z,20.75
2023-02-15T20:21:19.480Z,22.08
2023-02-15T20:23:47.784Z,18.73
2023-02-15T20:26:20.175Z,19.25
2023-02-15T20:28:49.491Z,21.17
2023-02-15T20:31:21.229Z,20.60
2023-02-15T20:33:50.873Z,20.48
2023-02-15T20:36:23.930Z,19.80
2023-02-15T20:38:52.439Z,21.52
2023-02-15T20:41:41.466Z,19.15
2023-02-15T20:44:30.302Z,21.10
2023-02-15T20:47:00.979Z,20.65
2023-02-15T20:49:33.343Z,20.13
2023-02-15T20:52:11.920Z,20.17
2023-02-15T20:54:41.686Z,21.63
2023-02-15T20:57:14.279Z,20.20
2023-02-15T20:59:43.917Z,22.17
2023-02-15T21:02:26.007Z,20.55
2023-02-15T21:04:55.746Z,22.17
2023-02-15T21:07:24.736Z,21.45
2023-02-15T21:09:54.988Z,19.73
2023-02-15T21:12:25.034Z,21.75
2023-02-15T21:14:54.729Z,19.83
2023-02-15T21:17:23.094Z,20.35
2023-02-15T21:19:51.907Z,20.52
2023-02-15T21:22:22.900Z,22.35
2023-02-15T21:24:56.591Z,20.90
2023-02-15T21:27:24.769Z,19.88
2023-02-15T21:29:52.494Z,24.17
2023-02-15T21:32:20.768Z,21.42
2023-02-15T21:34:49.038Z,19.50
2023-02-15T21:37:33.199Z,19.83
2023-02-15T21:40:01.042Z,21.30
2023-02-15T21:42:47.558Z,21.95
2023-02-15T21:45:37.511Z,21.20
2023-02-15T21:48:05.498Z,24.00
2023-02-15T21:50:53.287Z,22.45
2023-02-15T21:53:28.651Z,21.80
2023-02-15T21:55:58.372Z,22.13
2023-02-15T21:58:28.460Z,23.50
2023-02-15T22:00:58.065Z,22.65
2023-02-15T22:03:30.305Z,22.90
2023-02-15T22:05:57.654Z,22.40
2023-02-15T22:08:24.871Z,19.38
2023-02-15T22:10:54.937Z,17.73
2023-02-15T22:13:30.856Z,18.20
2023-02-15T22:15:59.128Z,17.23
2023-02-15T22:18:31.371Z,16.88
2023-02-15T22:21:00.964Z,18.85
2023-02-15T22:23:28.132Z,16.90
2023-02-15T22:26:03.089Z,18.55
2023-02-15T22:28:36.262Z,15.40
2023-02-15T22:31:04.934Z,16.02
2023-02-15T22:33:34.115Z,15.90
2023-02-15T22:36:02.041Z,18.67
2023-02-15T22:38:29.871Z,16.15
2023-02-15T22:41:04.463Z,17.30
2023-02-15T22:43:41.236Z,16.52
2023-02-15T22:46:16.665Z,16.92
2023-02-15T22:48:45.482Z,17.15
2023-02-15T22:51:17.924Z,17.25
2023-02-15T22:53:45.000Z,16.15
2023-02-15T22:56:21.482Z,17.15
2023-02-15T22:58:50.596Z,17.83
2023-02-15T23:01:31.110Z,15.77
2023-02-15T23:03:59.144Z,17.40
2023-02-15T23:06:28.028Z,18.63
2023-02-15T23:08:55.036Z,18.55
2023-02-15T23:11:22.145Z,17.30
2023-02-15T23:13:50.328Z,19.75
2023-02-15T23:16:18.349Z,18.90
2023-02-15T23:18:47.229Z,19.15
2023-02-15T23:21:30.338Z,17.27
2023-02-15T23:24:22.388Z,15.73
2023-02-15T23:26:50.312Z,16.75
2023-02-15T23:29:20.730Z,18.60
2023-02-15T23:31:51.507Z,17.85
2023-02-15T23:34:36.883Z,19.70
2023-02-15T23:37:04.003Z,17.77
2023-02-15T23:39:49.885Z,18.40
2023-02-15T23:42:21.397Z,17.73
2023-02-15T23:44:49.621Z,18.17
2023-02-15T23:47:54.397Z,18.45
2023-02-15T23:50:30.979Z,17.45
2023-02-15T23:52:58.758Z,19.08
2023-02-15T23:55:36.225Z,17.20
2023-02-15T23:58:06.576Z,18.30
